sensor_id;sensor_type;location;lat;lon;timestamp;P1;durP1;ratioP1;P2;durP2;ratioP2
63370;SDS011;49504;48.336;14.472;2023-02-15T00:01:57;8.68;;;6.30;;
63370;SDS011;49504;48.336;14.472;2023-02-15T00:05:18;9.00;;;6.55;;
63370;SDS011;49504;48.336;14.472;2023-02-15T00:08:39;7.72;;;5.93;;
63370;SDS011;49504;48.336;14.472;2023-02-15T00:12:01;9.55;;;7.10;;
63370;SDS011;49504;48.336;14.472;2023-02-15T00:15:23;8.30;;;6.18;;
63370;SDS011;49504;48.336;14.472;2023-02-15T00:18:44;8.23;;;6.07;;
63370;SDS011;49504;48.336;14.472;2023-02-15T00:22:05;7.60;;;5.80;;
63370;SDS011;49504;48.336;14.472;2023-02-15T00:25:27;10.02;;;7.03;;
63370;SDS011;49504;48.336;14.472;2023-02-15T00:28:48;8.27;;;6.53;;
63370;SDS011;49504;48.336;14.472;2023-02-15T00:32:10;7.80;;;6.13;;
63370;SDS011;49504;48.336;14.472;2023-02-15T00:35:31;8.57;;;6.32;;
63370;SDS011;49504;48.336;14.472;2023-02-15T00:38:52;7.30;;;5.63;;
63370;SDS011;49504;48.336;14.472;2023-02-15T00:42:13;8.38;;;6.35;;
63370;SDS011;49504;48.336;14.472;2023-02-15T00:45:35;8.63;;;6.13;;
63370;SDS011;49504;48.336;14.472;2023-02-15T00:48:59;7.75;;;5.95;;
63370;SDS011;49504;48.336;14.472;2023-02-15T00:52:20;8.85;;;6.38;;
63370;SDS011;49504;48.336;14.472;2023-02-15T00:55:42;8.23;;;5.72;;
63370;SDS011;49504;48.336;14.472;2023-02-15T00:59:03;6.70;;;5.30;;
63370;SDS011;49504;48.336;14.472;2023-02-15T01:02:24;8.30;;;6.07;;
63370;SDS011;49504;48.336;14.472;2023-02-15T01:05:47;7.25;;;5.38;;
63370;SDS011;49504;48.336;14.472;2023-02-15T01:09:09;8.15;;;6.05;;
63370;SDS011;49504;48.336;14.472;2023-02-15T01:12:30;7.32;;;5.57;;
63370;SDS011;49504;48.336;14.472;2023-02-15T01:15:52;8.13;;;5.85;;
63370;SDS011;49504;48.336;14.472;2023-02-15T01:19:45;8.20;;;6.03;;
63370;SDS011;49504;48.336;14.472;2023-02-15T01:23:06;8.43;;;6.22;;
63370;SDS011;49504;48.336;14.472;2023-02-15T01:26:28;8.13;;;5.45;;
63370;SDS011;49504;48.336;14.472;2023-02-15T01:29:49;7.80;;;5.47;;
63370;SDS011;49504;48.336;14.472;2023-02-15T01:33:10;7.53;;;5.63;;
63370;SDS011;49504;48.336;14.472;2023-02-15T01:36:34;7.68;;;5.45;;
63370;SDS011;49504;48.336;14.472;2023-02-15T01:39:55;7.65;;;5.93;;
63370;SDS011;49504;48.336;14.472;2023-02-15T01:43:16;7.25;;;5.40;;
63370;SDS011;49504;48.336;14.472;2023-02-15T01:46:39;7.20;;;4.97;;
63370;SDS011;49504;48.336;14.472;2023-02-15T01:50:12;7.55;;;5.47;;
63370;SDS011;49504;48.336;14.472;2023-02-15T01:57:02;7.60;;;5.47;;
63370;SDS011;49504;48.336;14.472;2023-02-15T02:00:26;6.65;;;4.72;;
63370;SDS011;49504;48.336;14.472;2023-02-15T02:03:49;6.63;;;5.07;;
63370;SDS011;49504;48.336;14.472;2023-02-15T02:07:19;7.18;;;5.43;;
63370;SDS011;49504;48.336;14.472;2023-02-15T02:10:44;7.33;;;5.37;;
63370;SDS011;49504;48.336;14.472;2023-02-15T02:14:07;7.03;;;5.45;;
63370;SDS011;49504;48.336;14.472;2023-02-15T02:17:30;7.63;;;5.38;;
63370;SDS011;49504;48.336;14.472;2023-02-15T02:21:10;6.95;;;4.85;;
63370;SDS011;49504;48.336;14.472;2023-02-15T02:25:25;6.65;;;4.82;;
63370;SDS011;49504;48.336;14.472;2023-02-15T02:30:48;9.50;;;5.20;;
63370;SDS011;49504;48.336;14.472;2023-02-15T02:34:31;7.57;;;5.43;;
63370;SDS011;49504;48.336;14.472;2023-02-15T02:38:00;6.95;;;5.15;;
63370;SDS011;49504;48.336;14.472;2023-02-15T02:41:31;7.30;;;4.85;;
63370;SDS011;49504;48.336;14.472;2023-02-15T02:44:59;7.80;;;5.50;;
63370;SDS011;49504;48.336;14.472;2023-02-15T02:48:26;7.25;;;5.15;;
63370;SDS011;49504;48.336;14.472;2023-02-15T02:52:58;7.97;;;5.25;;
63370;SDS011;49504;48.336;14.472;2023-02-15T02:56:21;6.70;;;4.72;;
63370;SDS011;49504;48.336;14.472;2023-02-15T02:59:47;7.30;;;4.82;;
63370;SDS011;49504;48.336;14.472;2023-02-15T03:03:11;7.07;;;5.20;;
63370;SDS011;49504;48.336;14.472;2023-02-15T03:06:38;6.68;;;4.63;;
63370;SDS011;49504;48.336;14.472;2023-02-15T03:10:07;7.03;;;5.03;;
63370;SDS011;49504;48.336;14.472;2023-02-15T03:13:29;6.63;;;4.68;;
63370;SDS011;49504;48.336;14.472;2023-02-15T03:16:52;7.47;;;4.57;;
63370;SDS011;49504;48.336;14.472;2023-02-15T03:20:15;6.30;;;4.20;;
63370;SDS011;49504;48.336;14.472;2023-02-15T03:23:43;6.57;;;4.82;;
63370;SDS011;49504;48.336;14.472;2023-02-15T03:27:06;6.82;;;4.72;;
63370;SDS011;49504;48.336;14.472;2023-02-15T03:30:31;6.55;;;4.43;;
63370;SDS011;49504;48.336;14.472;2023-02-15T03:33:55;6.30;;;4.47;;
63370;SDS011;49504;48.336;14.472;2023-02-15T03:37:22;7.45;;;4.88;;
63370;SDS011;49504;48.336;14.472;2023-02-15T03:40:49;6.75;;;4.53;;
63370;SDS011;49504;48.336;14.472;2023-02-15T03:44:15;7.05;;;4.70;;
63370;SDS011;49504;48.336;14.472;2023-02-15T03:47:44;6.35;;;4.70;;
63370;SDS011;49504;48.336;14.472;2023-02-15T03:51:09;6.82;;;4.90;;
63370;SDS011;49504;48.336;14.472;2023-02-15T03:54:37;6.72;;;4.45;;
63370;SDS011;49504;48.336;14.472;2023-02-15T03:58:00;6.43;;;4.75;;
63370;SDS011;49504;48.336;14.472;2023-02-15T04:01:24;5.68;;;3.75;;
63370;SDS011;49504;48.336;14.472;2023-02-15T04:04:50;6.88;;;4.53;;
63370;SDS011;49504;48.336;14.472;2023-02-15T04:08:12;6.07;;;3.97;;
63370;SDS011;49504;48.336;14.472;2023-02-15T04:11:33;5.72;;;4.15;;
63370;SDS011;49504;48.336;14.472;2023-02-15T04:14:54;5.88;;;4.07;;
63370;SDS011;49504;48.336;14.472;2023-02-15T04:18:17;6.75;;;4.28;;
63370;SDS011;49504;48.336;14.472;2023-02-15T04:21:38;6.45;;;4.22;;
63370;SDS011;49504;48.336;14.472;2023-02-15T04:24:59;6.20;;;4.10;;
63370;SDS011;49504;48.336;14.472;2023-02-15T04:28:20;6.28;;;3.95;;
63370;SDS011;49504;48.336;14.472;2023-02-15T04:31:41;6.38;;;3.97;;
63370;SDS011;49504;48.336;14.472;2023-02-15T04:35:12;6.55;;;4.25;;
63370;SDS011;49504;48.336;14.472;2023-02-15T04:38:34;6.22;;;3.80;;
63370;SDS011;49504;48.336;14.472;2023-02-15T04:41:55;6.13;;;4.03;;
63370;SDS011;49504;48.336;14.472;2023-02-15T04:45:16;5.47;;;3.75;;
63370;SDS011;49504;48.336;14.472;2023-02-15T04:48:37;6.13;;;4.25;;
63370;SDS011;49504;48.336;14.472;2023-02-15T04:52:00;7.00;;;4.05;;
63370;SDS011;49504;48.336;14.472;2023-02-15T04:55:21;6.30;;;4.30;;
63370;SDS011;49504;48.336;14.472;2023-02-15T04:58:43;5.75;;;3.97;;
63370;SDS011;49504;48.336;14.472;2023-02-15T05:02:04;7.38;;;3.70;;
63370;SDS011;49504;48.336;14.472;2023-02-15T05:05:25;6.47;;;4.00;;
63370;SDS011;49504;48.336;14.472;2023-02-15T05:08:48;5.13;;;3.83;;
63370;SDS011;49504;48.336;14.472;2023-02-15T05:12:09;6.25;;;3.95;;
63370;SDS011;49504;48.336;14.472;2023-02-15T05:15:30;6.60;;;4.20;;
63370;SDS011;49504;48.336;14.472;2023-02-15T05:18:52;7.10;;;4.63;;
63370;SDS011;49504;48.336;14.472;2023-02-15T05:22:13;6.82;;;4.30;;
63370;SDS011;49504;48.336;14.472;2023-02-15T05:25:36;7.53;;;4.60;;
63370;SDS011;49504;48.336;14.472;2023-02-15T05:28:57;6.82;;;4.45;;
63370;SDS011;49504;48.336;14.472;2023-02-15T05:32:18;6.85;;;4.50;;
63370;SDS011;49504;48.336;14.472;2023-02-15T05:35:39;5.47;;;3.50;;
63370;SDS011;49504;48.336;14.472;2023-02-15T05:39:01;5.78;;;3.75;;
63370;SDS011;49504;48.336;14.472;2023-02-15T05:42:24;5.47;;;3.60;;
63370;SDS011;49504;48.336;14.472;2023-02-15T05:45:45;6.10;;;3.97;;
63370;SDS011;49504;48.336;14.472;2023-02-15T05:49:07;7.38;;;3.92;;
63370;SDS011;49504;48.336;14.472;2023-02-15T05:53:58;6.38;;;3.97;;
63370;SDS011;49504;48.336;14.472;2023-02-15T05:57:20;6.13;;;3.80;;
63370;SDS011;49504;48.336;14.472;2023-02-15T06:03:32;6.28;;;3.95;;
63370;SDS011;49504;48.336;14.472;2023-02-15T06:06:54;5.75;;;3.60;;
63370;SDS011;49504;48.336;14.472;2023-02-15T06:10:15;5.85;;;3.40;;
63370;SDS011;49504;48.336;14.472;2023-02-15T06:13:36;5.40;;;3.80;;
63370;SDS011;49504;48.336;14.472;2023-02-15T06:16:57;6.43;;;4.00;;
63370;SDS011;49504;48.336;14.472;2023-02-15T06:20:20;6.63;;;3.80;;
63370;SDS011;49504;48.336;14.472;2023-02-15T06:23:41;6.05;;;3.85;;
63370;SDS011;49504;48.336;14.472;2023-02-15T06:27:02;5.28;;;3.38;;
63370;SDS011;49504;48.336;14.472;2023-02-15T06:30:23;6.55;;;3.42;;
63370;SDS011;49504;48.336;14.472;2023-02-15T06:33:45;7.22;;;3.80;;
63370;SDS011;49504;48.336;14.472;2023-02-15T06:37:07;7.60;;;4.00;;
63370;SDS011;49504;48.336;14.472;2023-02-15T06:40:28;8.85;;;3.90;;
63370;SDS011;49504;48.336;14.472;2023-02-15T06:43:49;6.35;;;3.83;;
63370;SDS011;49504;48.336;14.472;2023-02-15T06:47:11;11.32;;;4.55;;
63370;SDS011;49504;48.336;14.472;2023-02-15T06:50:32;6.85;;;4.13;;
63370;SDS011;49504;48.336;14.472;2023-02-15T06:53:54;7.95;;;3.80;;
63370;SDS011;49504;48.336;14.472;2023-02-15T06:57:15;9.85;;;4.53;;
63370;SDS011;49504;48.336;14.472;2023-02-15T07:00:36;7.82;;;4.35;;
63370;SDS011;49504;48.336;14.472;2023-02-15T07:05:11;8.05;;;3.90;;
63370;SDS011;49504;48.336;14.472;2023-02-15T07:08:32;8.77;;;3.90;;
63370;SDS011;49504;48.336;14.472;2023-02-15T07:11:53;7.10;;;3.92;;
63370;SDS011;49504;48.336;14.472;2023-02-15T07:15:15;7.45;;;3.85;;
63370;SDS011;49504;48.336;14.472;2023-02-15T07:18:38;8.00;;;3.60;;
63370;SDS011;49504;48.336;14.472;2023-02-15T07:22:00;10.43;;;4.32;;
63370;SDS011;49504;48.336;14.472;2023-02-15T07:25:22;8.57;;;3.80;;
63370;SDS011;49504;48.336;14.472;2023-02-15T07:28:43;6.15;;;3.67;;
63370;SDS011;49504;48.336;14.472;2023-02-15T07:32:04;7.72;;;3.78;;
63370;SDS011;49504;48.336;14.472;2023-02-15T07:35:25;6.82;;;3.67;;
63370;SDS011;49504;48.336;14.472;2023-02-15T07:38:48;6.82;;;3.20;;
63370;SDS011;49504;48.336;14.472;2023-02-15T07:42:09;7.32;;;3.40;;
63370;SDS011;49504;48.336;14.472;2023-02-15T07:45:30;6.68;;;3.75;;
63370;SDS011;49504;48.336;14.472;2023-02-15T07:48:51;6.28;;;3.55;;
63370;SDS011;49504;48.336;14.472;2023-02-15T07:52:12;6.35;;;3.17;;
63370;SDS011;49504;48.336;14.472;2023-02-15T07:55:34;7.10;;;3.65;;
63370;SDS011;49504;48.336;14.472;2023-02-15T07:58:56;5.97;;;3.25;;
63370;SDS011;49504;48.336;14.472;2023-02-15T08:02:17;6.35;;;3.92;;
63370;SDS011;49504;48.336;14.472;2023-02-15T08:05:38;6.75;;;3.58;;
63370;SDS011;49504;48.336;14.472;2023-02-15T08:09:00;6.05;;;3.45;;
63370;SDS011;49504;48.336;14.472;2023-02-15T08:12:26;6.32;;;3.20;;
63370;SDS011;49504;48.336;14.472;2023-02-15T08:15:47;6.05;;;3.28;;
63370;SDS011;49504;48.336;14.472;2023-02-15T08:20:50;6.05;;;3.20;;
63370;SDS011;49504;48.336;14.472;2023-02-15T08:24:14;5.78;;;3.17;;
63370;SDS011;49504;48.336;14.472;2023-02-15T08:27:38;6.13;;;3.08;;
63370;SDS011;49504;48.336;14.472;2023-02-15T08:31:03;6.07;;;3.67;;
63370;SDS011;49504;48.336;14.472;2023-02-15T08:34:25;5.47;;;3.38;;
63370;SDS011;49504;48.336;14.472;2023-02-15T08:37:48;4.90;;;2.88;;
63370;SDS011;49504;48.336;14.472;2023-02-15T08:41:10;5.75;;;3.40;;
63370;SDS011;49504;48.336;14.472;2023-02-15T08:47:33;6.15;;;3.33;;
63370;SDS011;49504;48.336;14.472;2023-02-15T08:50:54;6.80;;;3.78;;
63370;SDS011;49504;48.336;14.472;2023-02-15T08:54:15;5.75;;;3.22;;
63370;SDS011;49504;48.336;14.472;2023-02-15T08:57:39;5.22;;;2.90;;
63370;SDS011;49504;48.336;14.472;2023-02-15T09:01:00;6.57;;;3.30;;
63370;SDS011;49504;48.336;14.472;2023-02-15T09:04:29;4.90;;;2.85;;
63370;SDS011;49504;48.336;14.472;2023-02-15T09:07:51;5.88;;;3.38;;
63370;SDS011;49504;48.336;14.472;2023-02-15T09:11:13;5.05;;;2.97;;
63370;SDS011;49504;48.336;14.472;2023-02-15T09:14:36;5.25;;;2.78;;
63370;SDS011;49504;48.336;14.472;2023-02-15T09:17:57;5.63;;;3.00;;
63370;SDS011;49504;48.336;14.472;2023-02-15T09:21:20;5.50;;;2.88;;
63370;SDS011;49504;48.336;14.472;2023-02-15T09:27:26;4.97;;;2.83;;
63370;SDS011;49504;48.336;14.472;2023-02-15T09:30:47;5.03;;;2.80;;
63370;SDS011;49504;48.336;14.472;2023-02-15T09:34:08;5.88;;;2.80;;
63370;SDS011;49504;48.336;14.472;2023-02-15T09:37:30;5.10;;;2.80;;
63370;SDS011;49504;48.336;14.472;2023-02-15T09:40:53;4.63;;;2.33;;
63370;SDS011;49504;48.336;14.472;2023-02-15T09:44:31;5.43;;;2.97;;
63370;SDS011;49504;48.336;14.472;2023-02-15T09:52:03;5.57;;;3.13;;
63370;SDS011;49504;48.336;14.472;2023-02-15T09:55:54;5.75;;;2.88;;
63370;SDS011;49504;48.336;14.472;2023-02-15T09:59:23;5.15;;;2.78;;
63370;SDS011;49504;48.336;14.472;2023-02-15T10:03:03;5.20;;;2.97;;
63370;SDS011;49504;48.336;14.472;2023-02-15T10:06:47;4.95;;;2.92;;
63370;SDS011;49504;48.336;14.472;2023-02-15T10:10:22;4.40;;;2.50;;
63370;SDS011;49504;48.336;14.472;2023-02-15T10:13:57;5.10;;;2.70;;
63370;SDS011;49504;48.336;14.472;2023-02-15T10:17:53;5.32;;;2.70;;
63370;SDS011;49504;48.336;14.472;2023-02-15T10:21:42;5.13;;;2.95;;
63370;SDS011;49504;48.336;14.472;2023-02-15T10:25:21;5.68;;;2.90;;
63370;SDS011;49504;48.336;14.472;2023-02-15T10:28:55;5.37;;;3.03;;
63370;SDS011;49504;48.336;14.472;2023-02-15T10:32:23;5.10;;;2.80;;
63370;SDS011;49504;48.336;14.472;2023-02-15T10:35:49;5.30;;;2.80;;
63370;SDS011;49504;48.336;14.472;2023-02-15T10:39:21;5.32;;;3.17;;
63370;SDS011;49504;48.336;14.472;2023-02-15T10:42:54;4.85;;;2.75;;
63370;SDS011;49504;48.336;14.472;2023-02-15T10:46:38;5.88;;;3.35;;
63370;SDS011;49504;48.336;14.472;2023-02-15T10:50:29;4.57;;;2.67;;
63370;SDS011;49504;48.336;14.472;2023-02-15T10:54:08;5.20;;;2.80;;
63370;SDS011;49504;48.336;14.472;2023-02-15T10:57:42;5.90;;;3.05;;
63370;SDS011;49504;48.336;14.472;2023-02-15T11:01:13;5.75;;;3.10;;
63370;SDS011;49504;48.336;14.472;2023-02-15T11:04:51;4.95;;;2.50;;
63370;SDS011;49504;48.336;14.472;2023-02-15T11:10:00;6.43;;;3.25;;
63370;SDS011;49504;48.336;14.472;2023-02-15T11:13:39;5.55;;;3.22;;
63370;SDS011;49504;48.336;14.472;2023-02-15T11:17:05;5.90;;;3.38;;
63370;SDS011;49504;48.336;14.472;2023-02-15T11:20:33;5.45;;;2.80;;
63370;SDS011;49504;48.336;14.472;2023-02-15T11:23:58;5.07;;;3.00;;
63370;SDS011;49504;48.336;14.472;2023-02-15T11:27:22;4.90;;;2.85;;
63370;SDS011;49504;48.336;14.472;2023-02-15T11:30:48;5.85;;;3.30;;
63370;SDS011;49504;48.336;14.472;2023-02-15T11:34:15;4.95;;;3.00;;
63370;SDS011;49504;48.336;14.472;2023-02-15T11:38:31;6.35;;;3.50;;
63370;SDS011;49504;48.336;14.472;2023-02-15T11:43:04;5.20;;;3.10;;
63370;SDS011;49504;48.336;14.472;2023-02-15T11:46:31;5.07;;;2.90;;
63370;SDS011;49504;48.336;14.472;2023-02-15T11:49:52;5.03;;;2.88;;
63370;SDS011;49504;48.336;14.472;2023-02-15T11:53:15;5.35;;;2.88;;
63370;SDS011;49504;48.336;14.472;2023-02-15T11:56:38;5.22;;;2.88;;
63370;SDS011;49504;48.336;14.472;2023-02-15T12:00:02;5.43;;;2.83;;
63370;SDS011;49504;48.336;14.472;2023-02-15T12:03:36;5.50;;;3.10;;
63370;SDS011;49504;48.336;14.472;2023-02-15T12:07:11;5.70;;;3.15;;
63370;SDS011;49504;48.336;14.472;2023-02-15T12:10:38;6.63;;;3.78;;
63370;SDS011;49504;48.336;14.472;2023-02-15T12:14:06;5.60;;;3.22;;
63370;SDS011;49504;48.336;14.472;2023-02-15T12:17:31;5.15;;;3.05;;
63370;SDS011;49504;48.336;14.472;2023-02-15T12:20:57;5.32;;;3.10;;
63370;SDS011;49504;48.336;14.472;2023-02-15T12:24:20;5.20;;;3.10;;
63370;SDS011;49504;48.336;14.472;2023-02-15T12:27:46;5.30;;;3.30;;
63370;SDS011;49504;48.336;14.472;2023-02-15T12:31:10;6.03;;;3.50;;
63370;SDS011;49504;48.336;14.472;2023-02-15T12:34:43;6.13;;;3.58;;
63370;SDS011;49504;48.336;14.472;2023-02-15T12:38:05;5.38;;;3.17;;
63370;SDS011;49504;48.336;14.472;2023-02-15T12:41:44;5.38;;;3.30;;
63370;SDS011;49504;48.336;14.472;2023-02-15T12:45:20;5.80;;;3.35;;
63370;SDS011;49504;48.336;14.472;2023-02-15T12:48:46;5.78;;;3.60;;
63370;SDS011;49504;48.336;14.472;2023-02-15T12:52:23;6.70;;;3.50;;
63370;SDS011;49504;48.336;14.472;2023-02-15T12:55:52;7.10;;;3.83;;
63370;SDS011;49504;48.336;14.472;2023-02-15T12:59:15;6.25;;;3.83;;
63370;SDS011;49504;48.336;14.472;2023-02-15T13:05:31;6.03;;;3.50;;
63370;SDS011;49504;48.336;14.472;2023-02-15T13:08:57;6.25;;;3.40;;
63370;SDS011;49504;48.336;14.472;2023-02-15T13:12:27;5.30;;;3.30;;
63370;SDS011;49504;48.336;14.472;2023-02-15T13:15:52;6.32;;;3.50;;
63370;SDS011;49504;48.336;14.472;2023-02-15T13:19:17;5.97;;;3.70;;
63370;SDS011;49504;48.336;14.472;2023-02-15T13:22:44;6.38;;;3.60;;
63370;SDS011;49504;48.336;14.472;2023-02-15T13:26:08;5.90;;;3.78;;
63370;SDS011;49504;48.336;14.472;2023-02-15T13:29:36;7.18;;;3.97;;
63370;SDS011;49504;48.336;14.472;2023-02-15T13:32:58;7.53;;;4.45;;
63370;SDS011;49504;48.336;14.472;2023-02-15T13:36:25;6.47;;;3.80;;
63370;SDS011;49504;48.336;14.472;2023-02-15T13:39:57;7.82;;;4.40;;
63370;SDS011;49504;48.336;14.472;2023-02-15T13:43:27;6.78;;;4.30;;
63370;SDS011;49504;48.336;14.472;2023-02-15T13:50:34;7.43;;;4.78;;
63370;SDS011;49504;48.336;14.472;2023-02-15T13:54:18;8.60;;;5.03;;
63370;SDS011;49504;48.336;14.472;2023-02-15T13:58:32;8.35;;;5.22;;
63370;SDS011;49504;48.336;14.472;2023-02-15T14:02:30;7.95;;;4.97;;
63370;SDS011;49504;48.336;14.472;2023-02-15T14:06:24;8.30;;;5.20;;
63370;SDS011;49504;48.336;14.472;2023-02-15T14:10:02;10.82;;;5.10;;
63370;SDS011;49504;48.336;14.472;2023-02-15T14:14:00;7.80;;;5.35;;
63370;SDS011;49504;48.336;14.472;2023-02-15T14:17:53;7.97;;;5.20;;
63370;SDS011;49504;48.336;14.472;2023-02-15T14:24:55;8.90;;;5.30;;
63370;SDS011;49504;48.336;14.472;2023-02-15T14:28:35;8.52;;;5.07;;
63370;SDS011;49504;48.336;14.472;2023-02-15T14:32:09;9.45;;;6.35;;
63370;SDS011;49504;48.336;14.472;2023-02-15T14:35:34;10.57;;;6.53;;
63370;SDS011;49504;48.336;14.472;2023-02-15T14:38:59;10.57;;;6.55;;
63370;SDS011;49504;48.336;14.472;2023-02-15T14:42:40;10.13;;;6.30;;
63370;SDS011;49504;48.336;14.472;2023-02-15T14:46:10;10.43;;;6.82;;
63370;SDS011;49504;48.336;14.472;2023-02-15T14:54:01;10.93;;;6.72;;
63370;SDS011;49504;48.336;14.472;2023-02-15T14:57:31;10.88;;;6.93;;
63370;SDS011;49504;48.336;14.472;2023-02-15T15:00:54;10.55;;;6.80;;
63370;SDS011;49504;48.336;14.472;2023-02-15T15:04:27;9.63;;;6.50;;
63370;SDS011;49504;48.336;14.472;2023-02-15T15:07:55;10.50;;;7.10;;
63370;SDS011;49504;48.336;14.472;2023-02-15T15:15:01;9.80;;;6.75;;
63370;SDS011;49504;48.336;14.472;2023-02-15T15:22:03;12.90;;;7.18;;
63370;SDS011;49504;48.336;14.472;2023-02-15T15:31:15;11.90;;;7.03;;
63370;SDS011;49504;48.336;14.472;2023-02-15T15:34:54;14.15;;;7.72;;
63370;SDS011;49504;48.336;14.472;2023-02-15T15:38:38;10.75;;;7.40;;
63370;SDS011;49504;48.336;14.472;2023-02-15T15:42:13;11.15;;;7.22;;
63370;SDS011;49504;48.336;14.472;2023-02-15T15:45:58;11.25;;;7.07;;
63370;SDS011;49504;48.336;14.472;2023-02-15T15:49:54;9.32;;;6.20;;
63370;SDS011;49504;48.336;14.472;2023-02-15T15:53:18;11.07;;;6.50;;
63370;SDS011;49504;48.336;14.472;2023-02-15T15:56:43;10.50;;;6.82;;
63370;SDS011;49504;48.336;14.472;2023-02-15T16:00:32;10.93;;;6.63;;
63370;SDS011;49504;48.336;14.472;2023-02-15T16:04:10;13.73;;;6.68;;
63370;SDS011;49504;48.336;14.472;2023-02-15T16:08:02;10.85;;;6.68;;
63370;SDS011;49504;48.336;14.472;2023-02-15T16:11:29;11.93;;;6.78;;
63370;SDS011;49504;48.336;14.472;2023-02-15T16:14:54;13.45;;;7.63;;
63370;SDS011;49504;48.336;14.472;2023-02-15T16:18:25;12.50;;;7.05;;
63370;SDS011;49504;48.336;14.472;2023-02-15T16:22:02;14.73;;;6.55;;
63370;SDS011;49504;48.336;14.472;2023-02-15T16:25:40;11.60;;;7.20;;
63370;SDS011;49504;48.336;14.472;2023-02-15T16:29:26;12.30;;;7.05;;
63370;SDS011;49504;48.336;14.472;2023-02-15T16:33:02;13.35;;;7.25;;
63370;SDS011;49504;48.336;14.472;2023-02-15T16:36:31;12.18;;;6.78;;
63370;SDS011;49504;48.336;14.472;2023-02-15T16:39:57;10.27;;;6.00;;
63370;SDS011;49504;48.336;14.472;2023-02-15T16:43:20;11.20;;;6.70;;
63370;SDS011;49504;48.336;14.472;2023-02-15T16:46:57;11.32;;;6.13;;
63370;SDS011;49504;48.336;14.472;2023-02-15T16:50:34;8.57;;;6.18;;
63370;SDS011;49504;48.336;14.472;2023-02-15T16:53:58;9.95;;;6.13;;
63370;SDS011;49504;48.336;14.472;2023-02-15T16:57:28;8.93;;;5.97;;
63370;SDS011;49504;48.336;14.472;2023-02-15T17:00:55;9.00;;;6.38;;
63370;SDS011;49504;48.336;14.472;2023-02-15T17:04:25;9.32;;;5.82;;
63370;SDS011;49504;48.336;14.472;2023-02-15T17:07:51;8.95;;;6.00;;
63370;SDS011;49504;48.336;14.472;2023-02-15T17:11:34;10.95;;;6.53;;
63370;SDS011;49504;48.336;14.472;2023-02-15T17:14:58;9.82;;;6.20;;
63370;SDS011;49504;48.336;14.472;2023-02-15T17:18:20;10.57;;;6.10;;
63370;SDS011;49504;48.336;14.472;2023-02-15T17:21:46;9.85;;;6.38;;
63370;SDS011;49504;48.336;14.472;2023-02-15T17:25:17;9.45;;;6.18;;
63370;SDS011;49504;48.336;14.472;2023-02-15T17:28:44;9.02;;;5.30;;
63370;SDS011;49504;48.336;14.472;2023-02-15T17:32:14;8.63;;;5.70;;
63370;SDS011;49504;48.336;14.472;2023-02-15T17:35:40;10.15;;;5.93;;
63370;SDS011;49504;48.336;14.472;2023-02-15T17:39:04;9.95;;;6.18;;
63370;SDS011;49504;48.336;14.472;2023-02-15T17:42:33;10.68;;;5.75;;
63370;SDS011;49504;48.336;14.472;2023-02-15T17:45:54;9.15;;;5.78;;
63370;SDS011;49504;48.336;14.472;2023-02-15T17:54:39;9.63;;;5.80;;
63370;SDS011;49504;48.336;14.472;2023-02-15T17:58:01;9.75;;;6.15;;
63370;SDS011;49504;48.336;14.472;2023-02-15T18:01:25;9.93;;;6.50;;
63370;SDS011;49504;48.336;14.472;2023-02-15T18:04:46;8.70;;;6.00;;
63370;SDS011;49504;48.336;14.472;2023-02-15T18:08:09;11.02;;;6.97;;
63370;SDS011;49504;48.336;14.472;2023-02-15T18:11:34;11.90;;;6.68;;
63370;SDS011;49504;48.336;14.472;2023-02-15T18:14:56;8.95;;;5.95;;
63370;SDS011;49504;48.336;14.472;2023-02-15T18:18:18;10.30;;;6.20;;
63370;SDS011;49504;48.336;14.472;2023-02-15T18:23:57;9.48;;;6.60;;
63370;SDS011;49504;48.336;14.472;2023-02-15T18:27:19;11.75;;;6.13;;
63370;SDS011;49504;48.336;14.472;2023-02-15T18:30:40;9.73;;;6.43;;
63370;SDS011;49504;48.336;14.472;2023-02-15T18:34:01;11.20;;;6.95;;
63370;SDS011;49504;48.336;14.472;2023-02-15T18:37:23;10.75;;;7.00;;
63370;SDS011;49504;48.336;14.472;2023-02-15T18:40:50;11.10;;;7.35;;
63370;SDS011;49504;48.336;14.472;2023-02-15T18:46:11;12.82;;;7.72;;
63370;SDS011;49504;48.336;14.472;2023-02-15T18:49:32;10.43;;;6.75;;
63370;SDS011;49504;48.336;14.472;2023-02-15T18:52:54;11.40;;;7.00;;
63370;SDS011;49504;48.336;14.472;2023-02-15T18:56:16;11.18;;;7.45;;
63370;SDS011;49504;48.336;14.472;2023-02-15T18:59:39;11.50;;;7.75;;
63370;SDS011;49504;48.336;14.472;2023-02-15T19:03:02;12.88;;;7.13;;
63370;SDS011;49504;48.336;14.472;2023-02-15T19:06:23;11.63;;;7.95;;
63370;SDS011;49504;48.336;14.472;2023-02-15T19:09:45;12.07;;;8.15;;
63370;SDS011;49504;48.336;14.472;2023-02-15T19:13:10;11.90;;;7.40;;
63370;SDS011;49504;48.336;14.472;2023-02-15T19:16:33;11.60;;;7.05;;
63370;SDS011;49504;48.336;14.472;2023-02-15T19:19:56;11.82;;;7.63;;
63370;SDS011;49504;48.336;14.472;2023-02-15T19:24:58;12.65;;;7.40;;
63370;SDS011;49504;48.336;14.472;2023-02-15T19:28:23;10.75;;;6.80;;
63370;SDS011;49504;48.336;14.472;2023-02-15T19:31:50;11.98;;;7.68;;
63370;SDS011;49504;48.336;14.472;2023-02-15T19:35:14;9.73;;;6.72;;
63370;SDS011;49504;48.336;14.472;2023-02-15T19:38:37;12.02;;;8.25;;
63370;SDS011;49504;48.336;14.472;2023-02-15T19:42:00;12.00;;;8.00;;
63370;SDS011;49504;48.336;14.472;2023-02-15T19:45:22;13.45;;;8.25;;
63370;SDS011;49504;48.336;14.472;2023-02-15T19:48:45;15.52;;;9.18;;
63370;SDS011;49504;48.336;14.472;2023-02-15T19:52:10;15.80;;;10.30;;
63370;SDS011;49504;48.336;14.472;2023-02-15T19:55:36;13.48;;;9.20;;
63370;SDS011;49504;48.336;14.472;2023-02-15T19:59:01;16.70;;;9.93;;
63370;SDS011;49504;48.336;14.472;2023-02-15T20:02:35;14.07;;;9.55;;
63370;SDS011;49504;48.336;14.472;2023-02-15T20:05:57;13.68;;;8.73;;
63370;SDS011;49504;48.336;14.472;2023-02-15T20:09:18;13.05;;;8.50;;
63370;SDS011;49504;48.336;14.472;2023-02-15T20:12:41;12.23;;;8.68;;
63370;SDS011;49504;48.336;14.472;2023-02-15T20:16:04;12.60;;;7.85;;
63370;SDS011;49504;48.336;14.472;2023-02-15T20:19:26;11.65;;;7.90;;
63370;SDS011;49504;48.336;14.472;2023-02-15T20:22:47;11.77;;;7.88;;
63370;SDS011;49504;48.336;14.472;2023-02-15T20:26:11;11.68;;;7.78;;
63370;SDS011;49504;48.336;14.472;2023-02-15T20:29:35;12.90;;;8.60;;
63370;SDS011;49504;48.336;14.472;2023-02-15T20:32:58;14.10;;;9.10;;
63370;SDS011;49504;48.336;14.472;2023-02-15T20:36:20;16.08;;;10.13;;
63370;SDS011;49504;48.336;14.472;2023-02-15T20:39:42;14.32;;;9.60;;
63370;SDS011;49504;48.336;14.472;2023-02-15T20:43:07;16.98;;;10.77;;
63370;SDS011;49504;48.336;14.472;2023-02-15T20:46:34;14.45;;;9.80;;
63370;SDS011;49504;48.336;14.472;2023-02-15T20:49:57;14.50;;;9.90;;
63370;SDS011;49504;48.336;14.472;2023-02-15T20:53:21;13.00;;;9.45;;
63370;SDS011;49504;48.336;14.472;2023-02-15T20:56:43;14.45;;;10.27;;
